sensor_id;sensor_type;location;lat;lon;timestamp;P1;durP1;ratioP1;P2;durP2;ratioP2
7887;SDS011;3989;48.810;9.208;2023-02-28T04:11:22;3.53;;;3.33;;
7887;SDS011;3989;48.810;9.208;2023-02-28T09:28:45;6.13;;;5.53;;
7887;SDS011;3989;48.810;9.208;2023-02-28T09:35:10;6.03;;;5.37;;
7887;SDS011;3989;48.810;9.208;2023-02-28T09:41:11;6.13;;;5.60;;
7887;SDS011;3989;48.810;9.208;2023-02-28T09:43:51;6.20;;;5.10;;
7887;SDS011;3989;48.810;9.208;2023-02-28T09:46:56;8.77;;;5.97;;
7887;SDS011;3989;48.810;9.208;2023-02-28T09:53:25;7.17;;;6.00;;
7887;SDS011;3989;48.810;9.208;2023-02-28T09:56:15;8.70;;;6.00;;
7887;SDS011;3989;48.810;9.208;2023-02-28T09:59:00;7.40;;;5.97;;
7887;SDS011;3989;48.810;9.208;2023-02-28T10:01:30;11.90;;;6.13;;
7887;SDS011;3989;48.810;9.208;2023-02-28T10:04:05;8.20;;;5.60;;
7887;SDS011;3989;48.810;9.208;2023-02-28T10:06:44;7.57;;;6.10;;
7887;SDS011;3989;48.810;9.208;2023-02-28T10:09:13;7.53;;;6.50;;
7887;SDS011;3989;48.810;9.208;2023-02-28T10:11:45;8.67;;;5.93;;
7887;SDS011;3989;48.810;9.208;2023-02-28T10:14:15;6.63;;;6.00;;
7887;SDS011;3989;48.810;9.208;2023-02-28T10:16:45;7.47;;;6.20;;
7887;SDS011;3989;48.810;9.208;2023-02-28T10:19:17;6.53;;;5.90;;
7887;SDS011;3989;48.810;9.208;2023-02-28T10:21:49;7.20;;;5.57;;
7887;SDS011;3989;48.810;9.208;2023-02-28T10:24:23;6.60;;;5.90;;
7887;SDS011;3989;48.810;9.208;2023-02-28T10:26:56;6.63;;;5.83;;
7887;SDS011;3989;48.810;9.208;2023-02-28T10:29:28;6.03;;;5.57;;
7887;SDS011;3989;48.810;9.208;2023-02-28T10:31:58;6.70;;;5.97;;
7887;SDS011;3989;48.810;9.208;2023-02-28T10:34:29;7.53;;;6.30;;
7887;SDS011;3989;48.810;9.208;2023-02-28T10:36:56;7.20;;;6.50;;
7887;SDS011;3989;48.810;9.208;2023-02-28T10:39:36;7.63;;;6.10;;
7887;SDS011;3989;48.810;9.208;2023-02-28T10:42:04;7.50;;;6.63;;
7887;SDS011;3989;48.810;9.208;2023-02-28T10:44:45;6.40;;;5.83;;
7887;SDS011;3989;48.810;9.208;2023-02-28T10:47:13;6.63;;;5.93;;
7887;SDS011;3989;48.810;9.208;2023-02-28T10:49:45;6.43;;;5.97;;
7887;SDS011;3989;48.810;9.208;2023-02-28T10:52:13;6.53;;;5.93;;
7887;SDS011;3989;48.810;9.208;2023-02-28T10:54:58;6.20;;;5.67;;
7887;SDS011;3989;48.810;9.208;2023-02-28T10:57:41;7.00;;;6.30;;
7887;SDS011;3989;48.810;9.208;2023-02-28T11:00:13;8.77;;;6.60;;
7887;SDS011;3989;48.810;9.208;2023-02-28T11:02:43;7.40;;;6.70;;
7887;SDS011;3989;48.810;9.208;2023-02-28T11:05:24;7.20;;;6.50;;
7887;SDS011;3989;48.810;9.208;2023-02-28T11:07:52;6.73;;;6.00;;
7887;SDS011;3989;48.810;9.208;2023-02-28T11:10:21;5.30;;;4.83;;
7887;SDS011;3989;48.810;9.208;2023-02-28T11:12:54;7.10;;;6.33;;
7887;SDS011;3989;48.810;9.208;2023-02-28T11:15:24;6.93;;;6.33;;
7887;SDS011;3989;48.810;9.208;2023-02-28T11:17:53;6.90;;;6.00;;
7887;SDS011;3989;48.810;9.208;2023-02-28T11:20:21;8.13;;;6.60;;
7887;SDS011;3989;48.810;9.208;2023-02-28T11:22:50;6.80;;;6.20;;
7887;SDS011;3989;48.810;9.208;2023-02-28T11:25:21;6.50;;;5.80;;
7887;SDS011;3989;48.810;9.208;2023-02-28T11:27:51;7.57;;;6.87;;
7887;SDS011;3989;48.810;9.208;2023-02-28T11:30:31;7.77;;;6.77;;
7887;SDS011;3989;48.810;9.208;2023-02-28T11:33:00;7.53;;;6.00;;
7887;SDS011;3989;48.810;9.208;2023-02-28T11:35:28;8.00;;;7.23;;
7887;SDS011;3989;48.810;9.208;2023-02-28T11:37:59;7.00;;;6.40;;
7887;SDS011;3989;48.810;9.208;2023-02-28T11:40:29;7.00;;;6.33;;
7887;SDS011;3989;48.810;9.208;2023-02-28T11:43:06;7.87;;;7.03;;
7887;SDS011;3989;48.810;9.208;2023-02-28T11:45:55;7.10;;;6.50;;
7887;SDS011;3989;48.810;9.208;2023-02-28T11:48:39;7.30;;;6.57;;
7887;SDS011;3989;48.810;9.208;2023-02-28T11:51:15;7.53;;;6.80;;
7887;SDS011;3989;48.810;9.208;2023-02-28T11:53:54;7.07;;;6.40;;
7887;SDS011;3989;48.810;9.208;2023-02-28T11:56:32;6.90;;;6.20;;
7887;SDS011;3989;48.810;9.208;2023-02-28T11:59:16;7.33;;;6.73;;
7887;SDS011;3989;48.810;9.208;2023-02-28T12:02:15;7.60;;;6.83;;
7887;SDS011;3989;48.810;9.208;2023-02-28T12:04:52;5.93;;;5.43;;
7887;SDS011;3989;48.810;9.208;2023-02-28T12:07:35;7.53;;;6.20;;
7887;SDS011;3989;48.810;9.208;2023-02-28T12:10:11;7.57;;;6.77;;
7887;SDS011;3989;48.810;9.208;2023-02-28T12:12:48;8.43;;;6.63;;
7887;SDS011;3989;48.810;9.208;2023-02-28T12:15:27;7.07;;;6.17;;
7887;SDS011;3989;48.810;9.208;2023-02-28T12:18:12;6.87;;;6.20;;
7887;SDS011;3989;48.810;9.208;2023-02-28T12:20:52;6.90;;;6.20;;
7887;SDS011;3989;48.810;9.208;2023-02-28T12:26:23;8.20;;;7.40;;
7887;SDS011;3989;48.810;9.208;2023-02-28T12:28:59;7.93;;;6.50;;
7887;SDS011;3989;48.810;9.208;2023-02-28T12:31:30;14.70;;;6.63;;
7887;SDS011;3989;48.810;9.208;2023-02-28T12:34:04;6.33;;;5.73;;
7887;SDS011;3989;48.810;9.208;2023-02-28T12:36:35;7.87;;;6.60;;
7887;SDS011;3989;48.810;9.208;2023-02-28T12:39:06;7.03;;;6.43;;
7887;SDS011;3989;48.810;9.208;2023-02-28T12:41:39;7.47;;;6.70;;
7887;SDS011;3989;48.810;9.208;2023-02-28T12:44:08;6.67;;;6.07;;
7887;SDS011;3989;48.810;9.208;2023-02-28T12:46:40;7.00;;;6.40;;
7887;SDS011;3989;48.810;9.208;2023-02-28T12:49:11;7.73;;;6.93;;
7887;SDS011;3989;48.810;9.208;2023-02-28T12:51:42;8.17;;;6.47;;
7887;SDS011;3989;48.810;9.208;2023-02-28T12:54:14;6.47;;;5.90;;
7887;SDS011;3989;48.810;9.208;2023-02-28T12:56:47;6.47;;;5.87;;
7887;SDS011;3989;48.810;9.208;2023-02-28T12:59:22;6.77;;;6.17;;
7887;SDS011;3989;48.810;9.208;2023-02-28T13:05:04;9.70;;;6.00;;
7887;SDS011;3989;48.810;9.208;2023-02-28T13:10:42;6.10;;;5.60;;
7887;SDS011;3989;48.810;9.208;2023-02-28T13:13:14;6.47;;;5.83;;
7887;SDS011;3989;48.810;9.208;2023-02-28T13:15:56;6.70;;;6.10;;
7887;SDS011;3989;48.810;9.208;2023-02-28T13:18:28;6.40;;;5.77;;
7887;SDS011;3989;48.810;9.208;2023-02-28T13:20:59;6.27;;;5.67;;
7887;SDS011;3989;48.810;9.208;2023-02-28T13:23:41;7.53;;;6.20;;
7887;SDS011;3989;48.810;9.208;2023-02-28T13:29:37;8.17;;;6.03;;
7887;SDS011;3989;48.810;9.208;2023-02-28T13:35:15;6.50;;;5.90;;
7887;SDS011;3989;48.810;9.208;2023-02-28T13:44:02;6.20;;;5.57;;
7887;SDS011;3989;48.810;9.208;2023-02-28T13:46:31;6.17;;;5.63;;
7887;SDS011;3989;48.810;9.208;2023-02-28T13:51:51;8.00;;;6.10;;
7887;SDS011;3989;48.810;9.208;2023-02-28T13:54:22;6.10;;;5.50;;
7887;SDS011;3989;48.810;9.208;2023-02-28T13:57:01;6.30;;;5.80;;
7887;SDS011;3989;48.810;9.208;2023-02-28T13:59:37;6.17;;;5.53;;
7887;SDS011;3989;48.810;9.208;2023-02-28T14:05:13;5.67;;;5.20;;
7887;SDS011;3989;48.810;9.208;2023-02-28T14:07:43;9.60;;;5.97;;
7887;SDS011;3989;48.810;9.208;2023-02-28T14:10:22;5.63;;;5.07;;
7887;SDS011;3989;48.810;9.208;2023-02-28T14:12:53;6.60;;;6.00;;
7887;SDS011;3989;48.810;9.208;2023-02-28T14:15:28;4.73;;;4.37;;
7887;SDS011;3989;48.810;9.208;2023-02-28T14:18:23;12.50;;;5.33;;
7887;SDS011;3989;48.810;9.208;2023-02-28T14:20:54;7.00;;;6.50;;
7887;SDS011;3989;48.810;9.208;2023-02-28T14:23:30;6.70;;;5.17;;
7887;SDS011;3989;48.810;9.208;2023-02-28T14:26:10;6.57;;;5.90;;
7887;SDS011;3989;48.810;9.208;2023-02-28T14:28:52;7.63;;;5.70;;
7887;SDS011;3989;48.810;9.208;2023-02-28T14:31:36;7.27;;;6.13;;
7887;SDS011;3989;48.810;9.208;2023-02-28T14:34:22;6.43;;;5.83;;
7887;SDS011;3989;48.810;9.208;2023-02-28T14:36:58;7.70;;;6.23;;
7887;SDS011;3989;48.810;9.208;2023-02-28T14:39:28;7.00;;;6.30;;
7887;SDS011;3989;48.810;9.208;2023-02-28T14:41:59;9.63;;;6.80;;
7887;SDS011;3989;48.810;9.208;2023-02-28T14:44:29;7.57;;;6.20;;
7887;SDS011;3989;48.810;9.208;2023-02-28T14:46:57;6.50;;;5.80;;
7887;SDS011;3989;48.810;9.208;2023-02-28T14:49:29;6.27;;;5.73;;
7887;SDS011;3989;48.810;9.208;2023-02-28T14:52:02;6.23;;;5.73;;
7887;SDS011;3989;48.810;9.208;2023-02-28T14:54:34;6.83;;;6.13;;
7887;SDS011;3989;48.810;9.208;2023-02-28T14:57:03;6.37;;;5.57;;
7887;SDS011;3989;48.810;9.208;2023-02-28T14:59:30;9.30;;;5.90;;
7887;SDS011;3989;48.810;9.208;2023-02-28T15:02:15;6.33;;;5.63;;
7887;SDS011;3989;48.810;9.208;2023-02-28T15:04:43;7.10;;;6.37;;
7887;SDS011;3989;48.810;9.208;2023-02-28T15:07:19;6.93;;;6.23;;
7887;SDS011;3989;48.810;9.208;2023-02-28T15:10:06;5.40;;;5.00;;
7887;SDS011;3989;48.810;9.208;2023-02-28T15:12:35;5.90;;;5.40;;
7887;SDS011;3989;48.810;9.208;2023-02-28T15:15:03;6.20;;;5.60;;
7887;SDS011;3989;48.810;9.208;2023-02-28T15:17:30;6.60;;;6.03;;
7887;SDS011;3989;48.810;9.208;2023-02-28T15:19:56;7.33;;;6.63;;
7887;SDS011;3989;48.810;9.208;2023-02-28T15:22:26;7.70;;;6.00;;
7887;SDS011;3989;48.810;9.208;2023-02-28T15:24:57;7.93;;;6.50;;
7887;SDS011;3989;48.810;9.208;2023-02-28T15:27:25;7.43;;;6.37;;
7887;SDS011;3989;48.810;9.208;2023-02-28T15:29:56;6.30;;;5.70;;
7887;SDS011;3989;48.810;9.208;2023-02-28T15:32:26;6.80;;;6.10;;
7887;SDS011;3989;48.810;9.208;2023-02-28T15:34:54;6.53;;;5.90;;
7887;SDS011;3989;48.810;9.208;2023-02-28T15:37:26;6.77;;;5.93;;
7887;SDS011;3989;48.810;9.208;2023-02-28T15:39:55;6.50;;;5.63;;
7887;SDS011;3989;48.810;9.208;2023-02-28T15:42:27;6.70;;;5.97;;
7887;SDS011;3989;48.810;9.208;2023-02-28T15:44:57;7.37;;;6.53;;
7887;SDS011;3989;48.810;9.208;2023-02-28T15:47:25;7.07;;;6.37;;
7887;SDS011;3989;48.810;9.208;2023-02-28T15:49:54;8.83;;;6.17;;
7887;SDS011;3989;48.810;9.208;2023-02-28T15:52:26;6.17;;;5.73;;
7887;SDS011;3989;48.810;9.208;2023-02-28T15:54:56;7.83;;;6.20;;
7887;SDS011;3989;48.810;9.208;2023-02-28T15:57:25;7.07;;;6.37;;
7887;SDS011;3989;48.810;9.208;2023-02-28T15:59:54;7.53;;;6.40;;
7887;SDS011;3989;48.810;9.208;2023-02-28T16:02:31;6.33;;;5.83;;
7887;SDS011;3989;48.810;9.208;2023-02-28T16:05:01;6.47;;;5.87;;
7887;SDS011;3989;48.810;9.208;2023-02-28T16:07:43;7.90;;;7.03;;
7887;SDS011;3989;48.810;9.208;2023-02-28T16:10:11;6.67;;;6.07;;
7887;SDS011;3989;48.810;9.208;2023-02-28T16:12:40;7.77;;;6.43;;
7887;SDS011;3989;48.810;9.208;2023-02-28T16:15:08;6.83;;;6.23;;
7887;SDS011;3989;48.810;9.208;2023-02-28T16:17:45;6.80;;;6.10;;
7887;SDS011;3989;48.810;9.208;2023-02-28T16:20:13;7.27;;;6.10;;
7887;SDS011;3989;48.810;9.208;2023-02-28T16:22:41;7.43;;;6.37;;
7887;SDS011;3989;48.810;9.208;2023-02-28T16:25:10;7.30;;;6.60;;
7887;SDS011;3989;48.810;9.208;2023-02-28T16:27:38;6.63;;;5.93;;
7887;SDS011;3989;48.810;9.208;2023-02-28T16:30:05;7.50;;;6.80;;
7887;SDS011;3989;48.810;9.208;2023-02-28T16:32:33;8.67;;;6.07;;
7887;SDS011;3989;48.810;9.208;2023-02-28T16:35:03;7.33;;;6.53;;
7887;SDS011;3989;48.810;9.208;2023-02-28T16:37:32;7.00;;;5.83;;
7887;SDS011;3989;48.810;9.208;2023-02-28T16:39:58;6.63;;;5.87;;
7887;SDS011;3989;48.810;9.208;2023-02-28T16:42:26;7.03;;;6.33;;
7887;SDS011;3989;48.810;9.208;2023-02-28T16:44:54;6.73;;;6.13;;
7887;SDS011;3989;48.810;9.208;2023-02-28T16:47:23;7.17;;;6.57;;
7887;SDS011;3989;48.810;9.208;2023-02-28T16:49:51;7.83;;;6.23;;
7887;SDS011;3989;48.810;9.208;2023-02-28T16:52:19;7.17;;;6.23;;
7887;SDS011;3989;48.810;9.208;2023-02-28T16:54:46;7.60;;;6.60;;
7887;SDS011;3989;48.810;9.208;2023-02-28T16:57:17;10.47;;;6.70;;
7887;SDS011;3989;48.810;9.208;2023-02-28T16:59:46;6.47;;;5.87;;
7887;SDS011;3989;48.810;9.208;2023-02-28T17:02:14;7.93;;;7.13;;
7887;SDS011;3989;48.810;9.208;2023-02-28T17:04:44;6.93;;;6.20;;
7887;SDS011;3989;48.810;9.208;2023-02-28T17:07:11;7.37;;;6.67;;
7887;SDS011;3989;48.810;9.208;2023-02-28T17:09:42;8.77;;;7.53;;
7887;SDS011;3989;48.810;9.208;2023-02-28T17:12:09;7.43;;;6.73;;
7887;SDS011;3989;48.810;9.208;2023-02-28T17:14:37;8.57;;;7.77;;
7887;SDS011;3989;48.810;9.208;2023-02-28T17:17:04;7.53;;;6.80;;
7887;SDS011;3989;48.810;9.208;2023-02-28T17:19:31;8.53;;;7.63;;
7887;SDS011;3989;48.810;9.208;2023-02-28T17:21:59;8.47;;;7.20;;
7887;SDS011;3989;48.810;9.208;2023-02-28T17:24:25;8.00;;;7.20;;
7887;SDS011;3989;48.810;9.208;2023-02-28T17:26:53;9.57;;;7.67;;
7887;SDS011;3989;48.810;9.208;2023-02-28T17:29:21;9.13;;;7.50;;
7887;SDS011;3989;48.810;9.208;2023-02-28T17:31:49;8.77;;;7.33;;
7887;SDS011;3989;48.810;9.208;2023-02-28T17:34:32;9.43;;;7.47;;
7887;SDS011;3989;48.810;9.208;2023-02-28T17:36:59;7.57;;;6.87;;
7887;SDS011;3989;48.810;9.208;2023-02-28T17:39:26;9.53;;;7.97;;
7887;SDS011;3989;48.810;9.208;2023-02-28T17:41:54;9.07;;;8.13;;
7887;SDS011;3989;48.810;9.208;2023-02-28T17:44:22;9.60;;;7.47;;
7887;SDS011;3989;48.810;9.208;2023-02-28T17:46:50;10.00;;;8.43;;
7887;SDS011;3989;48.810;9.208;2023-02-28T17:49:17;8.43;;;7.53;;
7887;SDS011;3989;48.810;9.208;2023-02-28T17:51:44;10.80;;;9.17;;
7887;SDS011;3989;48.810;9.208;2023-02-28T17:54:11;8.77;;;7.93;;
7887;SDS011;3989;48.810;9.208;2023-02-28T17:56:38;8.87;;;7.90;;
7887;SDS011;3989;48.810;9.208;2023-02-28T17:59:12;9.33;;;8.13;;
7887;SDS011;3989;48.810;9.208;2023-02-28T18:01:39;9.97;;;8.40;;
7887;SDS011;3989;48.810;9.208;2023-02-28T18:04:06;12.37;;;9.20;;
7887;SDS011;3989;48.810;9.208;2023-02-28T18:06:34;10.70;;;8.17;;
7887;SDS011;3989;48.810;9.208;2023-02-28T18:09:12;9.53;;;8.13;;
7887;SDS011;3989;48.810;9.208;2023-02-28T18:11:39;9.87;;;8.37;;
